Sumter, South Carolina
Current Conditions -  °F | °C
As of 11:55 PM on Sunday 21 Dec 2014 (Local Time) from KSMS Reporting Station
Moderate Rain Moderate Rain  
Wind Chill: 44°   Ceiling: 1900
Heat Index: 46°   Visibility: 2mi
Dew Point: 45°   Wind: 6mph
Humidity: 93%   Direction: 20°NNE
Pressure: 30.15"   Gusts: NA
Location:  33.92°N, 80.34°W
Report Text: KSMS 220455Z AUTO 02005KT 2SM RA FEW004 FEW014 OVC019 08/07 A3015 RMK AO2
Loading
Personal Weather Stations






























Interactive Weather Map New forecast layout! Learn more

10-Day Weather Forecast

Advertisements
Track Severe Weather on mobile